createdAt,value
2022-11-13T00:01:38.721Z,17.56
2022-11-13T00:04:24.563Z,17.60
2022-11-13T00:07:10.432Z,17.56
2022-11-13T00:09:56.146Z,17.54
2022-11-13T00:12:41.952Z,17.54
2022-11-13T00:15:27.501Z,17.57
2022-11-13T00:18:13.356Z,17.26
2022-11-13T00:21:04.214Z,17.35
2022-11-13T00:23:50.364Z,17.34
2022-11-13T00:26:36.259Z,17.32
2022-11-13T00:29:21.869Z,17.31
2022-11-13T00:32:07.450Z,17.19
2022-11-13T00:34:53.211Z,17.24
2022-11-13T00:37:38.799Z,17.25
2022-11-13T00:40:24.574Z,17.28
2022-11-13T00:43:10.356Z,17.12
2022-11-13T00:45:56.164Z,17.18
2022-11-13T00:48:41.969Z,17.22
2022-11-13T00:51:27.781Z,17.12
2022-11-13T00:54:13.378Z,17.23
2022-11-13T00:56:59.237Z,17.16
2022-11-13T00:59:49.340Z,17.16
2022-11-13T01:02:35.113Z,17.18
2022-11-13T01:05:21.108Z,17.22
2022-11-13T01:08:09.549Z,17.17
2022-11-13T01:10:55.780Z,17.03
2022-11-13T01:13:42.027Z,17.08
2022-11-13T01:16:28.157Z,17.04
2022-11-13T01:19:13.688Z,17.02
2022-11-13T01:21:59.427Z,17.06
2022-11-13T01:24:45.152Z,17.11
2022-11-13T01:27:30.839Z,16.86
2022-11-13T01:30:16.964Z,16.91
2022-11-13T01:33:02.626Z,17.08
2022-11-13T01:35:48.444Z,16.71
2022-11-13T01:38:36.684Z,16.82
2022-11-13T01:41:25.670Z,16.93
2022-11-13T01:44:11.554Z,16.84
2022-11-13T01:46:57.216Z,16.70
2022-11-13T01:49:42.785Z,16.83
2022-11-13T01:52:29.240Z,16.80
2022-11-13T01:55:15.821Z,17.03
2022-11-13T01:58:01.354Z,16.75
2022-11-13T02:00:47.186Z,16.69
2022-11-13T02:03:33.014Z,16.41
2022-11-13T02:06:19.386Z,16.45
2022-11-13T02:09:05.169Z,16.27
2022-11-13T02:11:50.538Z,16.30
2022-11-13T02:14:36.166Z,16.40
2022-11-13T02:17:23.340Z,16.35
2022-11-13T02:20:09.122Z,16.28
2022-11-13T02:22:54.643Z,16.38
2022-11-13T02:25:40.316Z,16.34
2022-11-13T02:28:26.485Z,16.36
2022-11-13T02:31:13.129Z,16.39
2022-11-13T02:33:58.810Z,16.48
2022-11-13T02:36:44.391Z,16.16
2022-11-13T02:39:30.066Z,16.19
2022-11-13T02:42:15.903Z,16.20
2022-11-13T02:45:01.891Z,16.20
2022-11-13T02:47:47.524Z,16.20
2022-11-13T02:50:34.111Z,16.12
2022-11-13T02:53:19.755Z,16.13
2022-11-13T02:56:05.729Z,16.00
2022-11-13T02:58:51.400Z,16.05
2022-11-13T03:01:36.993Z,15.99
2022-11-13T03:04:22.731Z,15.88
2022-11-13T03:07:08.734Z,15.80
2022-11-13T03:09:54.327Z,15.89
2022-11-13T03:12:40.764Z,15.91
2022-11-13T03:15:26.479Z,15.66
2022-11-13T03:18:12.522Z,15.59
2022-11-13T03:20:58.332Z,15.70
2022-11-13T03:23:47.143Z,15.41
2022-11-13T03:26:33.033Z,15.63
2022-11-13T03:29:18.515Z,15.56
2022-11-13T03:32:04.053Z,15.53
2022-11-13T03:34:49.830Z,15.56
2022-11-13T03:37:35.709Z,15.61
2022-11-13T03:40:21.358Z,15.84
2022-11-13T03:43:07.154Z,15.93
2022-11-13T03:45:53.005Z,15.93
2022-11-13T03:48:38.771Z,15.72
2022-11-13T03:51:24.623Z,15.63
2022-11-13T03:54:10.124Z,15.73
2022-11-13T03:56:56.002Z,15.94
2022-11-13T03:59:41.282Z,15.77
2022-11-13T04:02:27.119Z,15.91
2022-11-13T04:05:13.012Z,16.07
2022-11-13T04:07:58.675Z,16.06
2022-11-13T04:10:44.740Z,16.09
2022-11-13T04:13:30.340Z,16.13
2022-11-13T04:16:15.986Z,15.95
2022-11-13T04:19:01.762Z,16.08
2022-11-13T04:21:47.403Z,16.15
2022-11-13T04:24:33.187Z,15.96
2022-11-13T04:27:18.767Z,15.80
2022-11-13T04:30:04.627Z,16.39
2022-11-13T04:32:50.507Z,15.53
2022-11-13T04:35:35.900Z,14.63
2022-11-13T04:38:21.676Z,14.27
2022-11-13T04:41:26.391Z,14.20
2022-11-13T04:44:11.800Z,14.83
2022-11-13T04:46:57.452Z,14.92
2022-11-13T04:49:43.312Z,15.03
2022-11-13T04:52:29.045Z,14.91
2022-11-13T04:55:15.036Z,14.96
2022-11-13T04:58:00.429Z,15.04
2022-11-13T05:00:45.963Z,15.18
2022-11-13T05:03:31.855Z,14.97
2022-11-13T05:06:17.883Z,14.49
2022-11-13T05:09:03.633Z,14.71
2022-11-13T05:11:49.340Z,14.91
2022-11-13T05:14:35.934Z,15.00
2022-11-13T05:17:23.235Z,14.92
2022-11-13T05:20:09.223Z,15.13
2022-11-13T05:22:54.715Z,15.07
2022-11-13T05:25:40.506Z,15.01
2022-11-13T05:28:26.721Z,14.91
2022-11-13T05:31:13.177Z,14.95
2022-11-13T05:34:04.197Z,14.99
2022-11-13T05:36:51.640Z,15.04
2022-11-13T05:39:37.383Z,14.71
2022-11-13T05:42:23.055Z,14.53
2022-11-13T05:45:09.029Z,14.63
2022-11-13T05:47:54.496Z,14.73
2022-11-13T05:50:40.341Z,14.65
2022-11-13T05:53:25.965Z,14.86
2022-11-13T05:56:12.662Z,14.69
2022-11-13T05:58:58.966Z,14.91
2022-11-13T06:01:44.795Z,15.00
2022-11-13T06:04:30.488Z,15.08
2022-11-13T06:07:16.198Z,15.24
2022-11-13T06:10:01.939Z,15.21
2022-11-13T06:12:47.763Z,15.26
2022-11-13T06:15:33.423Z,15.16
2022-11-13T06:18:26.735Z,15.18
2022-11-13T06:21:13.690Z,15.25
2022-11-13T06:24:00.095Z,15.07
2022-11-13T06:26:45.742Z,15.20
2022-11-13T06:29:31.446Z,15.06
2022-11-13T06:32:16.987Z,15.13
2022-11-13T06:35:02.706Z,15.06
2022-11-13T06:37:48.531Z,15.28
2022-11-13T06:40:34.193Z,15.29
2022-11-13T06:43:19.817Z,15.07
2022-11-13T06:46:06.315Z,15.45
2022-11-13T06:48:51.757Z,15.44
2022-11-13T06:51:37.386Z,15.40
2022-11-13T06:54:22.962Z,15.53
2022-11-13T06:57:08.672Z,15.56
2022-11-13T06:59:54.652Z,15.63
2022-11-13T07:02:40.524Z,14.13
2022-11-13T07:05:26.295Z,14.18
2022-11-13T07:08:12.483Z,13.73
2022-11-13T07:10:58.205Z,14.73
2022-11-13T07:13:44.088Z,14.81
2022-11-13T07:16:39.044Z,15.22
2022-11-13T07:19:35.425Z,15.29
2022-11-13T07:22:21.215Z,15.33
2022-11-13T07:25:07.209Z,15.40
2022-11-13T07:27:53.046Z,15.16
2022-11-13T07:30:38.838Z,15.37
2022-11-13T07:33:24.764Z,15.32
2022-11-13T07:36:10.426Z,15.02
2022-11-13T07:39:00.116Z,13.77
2022-11-13T07:41:47.030Z,14.30
2022-11-13T07:44:53.423Z,13.80
2022-11-13T07:47:38.638Z,15.01
2022-11-13T07:50:24.066Z,15.02
2022-11-13T07:53:10.281Z,15.27
2022-11-13T07:55:56.056Z,15.09
2022-11-13T07:58:41.511Z,15.26
2022-11-13T08:01:27.276Z,15.53
2022-11-13T08:04:12.986Z,15.47
2022-11-13T08:06:58.781Z,15.90
2022-11-13T08:09:44.395Z,14.82
2022-11-13T08:12:30.098Z,15.43
2022-11-13T08:15:15.917Z,14.50
2022-11-13T08:18:02.512Z,14.81
2022-11-13T08:20:47.886Z,15.19
2022-11-13T08:23:33.635Z,15.22
2022-11-13T08:26:19.520Z,14.64
2022-11-13T08:29:04.828Z,14.82
2022-11-13T08:31:50.675Z,14.66
2022-11-13T08:34:37.311Z,13.48
2022-11-13T08:37:23.044Z,13.18
2022-11-13T08:40:09.161Z,15.00
2022-11-13T08:42:59.170Z,14.80
2022-11-13T08:45:45.649Z,15.27
2022-11-13T08:48:31.733Z,15.76
2022-11-13T08:51:18.375Z,16.00
2022-11-13T08:54:04.370Z,15.99
2022-11-13T08:56:54.655Z,15.37
2022-11-13T08:59:42.424Z,15.91
2022-11-13T09:02:28.091Z,16.44
2022-11-13T09:05:14.296Z,16.35
2022-11-13T09:08:00.335Z,16.74
2022-11-13T09:10:46.005Z,15.82
2022-11-13T09:13:33.220Z,16.62
2022-11-13T09:16:18.883Z,16.87
2022-11-13T09:19:04.598Z,16.82
2022-11-13T09:21:50.936Z,16.94
2022-11-13T09:24:36.816Z,16.91
2022-11-13T09:27:22.591Z,16.41
2022-11-13T09:30:08.471Z,16.51
2022-11-13T09:32:54.707Z,17.09
2022-11-13T09:35:40.327Z,16.88
2022-11-13T09:38:25.971Z,16.74
2022-11-13T09:41:13.234Z,16.87
2022-11-13T09:44:00.366Z,16.81
2022-11-13T09:46:47.681Z,16.74
2022-11-13T09:49:33.601Z,16.94
2022-11-13T09:52:21.672Z,16.89
2022-11-13T09:55:09.773Z,17.36
2022-11-13T09:58:12.752Z,17.15
2022-11-13T10:00:58.579Z,15.78
2022-11-13T10:04:00.751Z,16.48
2022-11-13T10:06:50.715Z,16.41
2022-11-13T10:09:55.409Z,16.29
2022-11-13T10:12:40.954Z,15.89
2022-11-13T10:15:27.016Z,16.65
2022-11-13T10:18:12.666Z,16.66
2022-11-13T10:21:05.543Z,16.98
2022-11-13T10:23:56.239Z,16.90
2022-11-13T10:26:42.039Z,17.56
2022-11-13T10:29:28.661Z,17.27
2022-11-13T10:32:24.651Z,17.63
2022-11-13T10:35:30.223Z,17.09
2022-11-13T10:38:39.022Z,17.45
2022-11-13T10:41:24.436Z,17.67
2022-11-13T10:44:23.144Z,17.27
2022-11-13T10:47:19.701Z,17.09
2022-11-13T10:50:12.869Z,16.24
2022-11-13T10:52:58.435Z,16.23
2022-11-13T10:55:44.113Z,16.78
2022-11-13T10:58:30.189Z,17.03
2022-11-13T11:01:22.840Z,17.02
2022-11-13T11:04:19.992Z,17.27
2022-11-13T11:07:25.901Z,17.57
2022-11-13T11:10:24.230Z,17.05
2022-11-13T11:13:10.602Z,16.59
2022-11-13T11:15:57.965Z,17.38
2022-11-13T11:18:49.792Z,17.68
2022-11-13T11:21:36.406Z,17.52
2022-11-13T11:24:25.837Z,17.64
2022-11-13T11:27:14.392Z,17.85
2022-11-13T11:30:26.738Z,17.39
2022-11-13T11:33:21.430Z,17.21
2022-11-13T11:36:09.019Z,17.55
2022-11-13T11:38:57.786Z,17.09
2022-11-13T11:41:45.071Z,17.66
2022-11-13T11:44:34.111Z,17.96
2022-11-13T11:47:19.533Z,18.09
2022-11-13T11:50:05.748Z,18.40
2022-11-13T11:52:56.901Z,18.59
2022-11-13T11:55:55.294Z,18.72
2022-11-13T11:58:59.906Z,18.50
2022-11-13T12:02:08.083Z,18.24
2022-11-13T12:05:03.399Z,18.65
2022-11-13T12:07:52.506Z,18.63
2022-11-13T12:10:40.964Z,18.16
2022-11-13T12:13:33.129Z,18.32
2022-11-13T12:16:30.296Z,18.73
2022-11-13T12:19:26.923Z,18.05
2022-11-13T12:22:30.608Z,18.40
2022-11-13T12:25:35.572Z,18.48
2022-11-13T12:28:22.070Z,17.97
2022-11-13T12:31:14.943Z,17.48
2022-11-13T12:34:06.865Z,16.94
2022-11-13T12:36:52.347Z,16.78
2022-11-13T12:39:40.676Z,17.55
2022-11-13T12:42:39.061Z,17.43
2022-11-13T12:45:45.168Z,17.50
2022-11-13T12:48:33.869Z,18.06
2022-11-13T12:51:19.401Z,17.74
2022-11-13T12:54:05.364Z,17.75
2022-11-13T12:56:51.254Z,18.17
2022-11-13T12:59:37.310Z,17.71
2022-11-13T13:02:41.563Z,17.26
2022-11-13T13:05:38.971Z,17.77
2022-11-13T13:08:31.845Z,17.95
2022-11-13T13:11:21.008Z,17.81
2022-11-13T13:14:16.028Z,18.22
2022-11-13T13:17:05.525Z,18.12
2022-11-13T13:19:58.798Z,17.89
2022-11-13T13:22:54.461Z,17.91
2022-11-13T13:25:40.316Z,17.78
2022-11-13T13:28:25.969Z,17.77
2022-11-13T13:31:15.495Z,18.20
2022-11-13T13:34:21.927Z,17.54
2022-11-13T13:37:17.062Z,17.81
2022-11-13T13:40:15.510Z,17.90
2022-11-13T13:43:15.393Z,17.92
2022-11-13T13:46:06.935Z,18.16
2022-11-13T13:48:53.970Z,18.22
2022-11-13T13:51:43.628Z,17.14
2022-11-13T13:54:29.766Z,17.13
2022-11-13T13:57:16.184Z,17.03
2022-11-13T14:00:02.184Z,18.08
2022-11-13T14:02:49.048Z,17.49
2022-11-13T14:05:35.389Z,17.23
2022-11-13T14:08:22.214Z,16.90
2022-11-13T14:11:27.192Z,17.99
2022-11-13T14:14:18.057Z,17.36
2022-11-13T14:17:03.938Z,17.96
2022-11-13T14:19:52.675Z,17.96
2022-11-13T14:22:38.536Z,18.43
2022-11-13T14:25:25.481Z,18.31
2022-11-13T14:28:15.327Z,18.37
2022-11-13T14:31:02.469Z,18.44
2022-11-13T14:33:49.164Z,18.59
2022-11-13T14:36:35.040Z,18.72
2022-11-13T14:39:22.703Z,18.33
2022-11-13T14:42:14.111Z,18.05
2022-11-13T14:45:16.522Z,18.45
2022-11-13T14:48:03.191Z,18.33
2022-11-13T14:50:53.270Z,18.41
2022-11-13T14:53:40.135Z,18.57
2022-11-13T14:56:33.094Z,18.21
2022-11-13T14:59:25.874Z,18.25
2022-11-13T15:02:12.535Z,18.55
2022-11-13T15:04:58.592Z,17.97
2022-11-13T15:07:46.026Z,18.09
2022-11-13T15:10:31.952Z,18.18
2022-11-13T15:13:17.989Z,17.88
2022-11-13T15:16:04.624Z,17.60
2022-11-13T15:18:51.954Z,18.07
2022-11-13T15:21:38.176Z,17.63
2022-11-13T15:24:24.511Z,17.87
2022-11-13T15:27:15.638Z,17.89
2022-11-13T15:30:01.651Z,17.83
2022-11-13T15:32:53.584Z,17.92
2022-11-13T15:35:39.491Z,17.55
2022-11-13T15:38:25.102Z,17.69
2022-11-13T15:41:15.878Z,17.84
2022-11-13T15:44:02.191Z,17.88
2022-11-13T15:46:48.744Z,17.58
2022-11-13T15:49:34.777Z,17.17
2022-11-13T15:52:20.887Z,17.56
2022-11-13T15:55:13.120Z,17.66
2022-11-13T15:57:58.687Z,17.58
2022-11-13T16:00:46.034Z,17.64
2022-11-13T16:03:34.490Z,17.42
2022-11-13T16:06:21.097Z,17.17
2022-11-13T16:09:09.567Z,17.58
2022-11-13T16:11:56.258Z,17.59
2022-11-13T16:14:41.812Z,17.40
2022-11-13T16:17:27.749Z,17.24
2022-11-13T16:20:16.667Z,16.90
2022-11-13T16:23:02.670Z,17.21
2022-11-13T16:25:48.162Z,17.20
2022-11-13T16:28:41.917Z,16.44
2022-11-13T16:31:39.831Z,16.22
2022-11-13T16:34:25.872Z,16.34
2022-11-13T16:37:15.943Z,16.14
2022-11-13T16:40:01.733Z,15.90
2022-11-13T16:42:47.932Z,15.90
2022-11-13T16:45:34.074Z,16.16
2022-11-13T16:48:20.126Z,15.38
2022-11-13T16:51:07.414Z,14.84
2022-11-13T16:53:53.293Z,15.52
2022-11-13T16:56:40.464Z,15.74
2022-11-13T16:59:26.786Z,15.27
2022-11-13T17:02:14.136Z,14.82
2022-11-13T17:05:00.414Z,15.26
2022-11-13T17:07:46.546Z,15.05
2022-11-13T17:10:33.418Z,15.32
2022-11-13T17:13:22.727Z,14.81
2022-11-13T17:16:09.108Z,14.86
2022-11-13T17:18:55.460Z,14.95
2022-11-13T17:21:44.366Z,14.78
2022-11-13T17:24:31.203Z,14.45
2022-11-13T17:27:19.020Z,14.45
2022-11-13T17:30:05.816Z,13.91
2022-11-13T17:32:51.843Z,14.34
2022-11-13T17:35:38.119Z,13.86
2022-11-13T17:38:24.915Z,13.99
2022-11-13T17:41:13.061Z,14.75
2022-11-13T17:44:01.366Z,14.13
2022-11-13T17:46:48.341Z,13.81
2022-11-13T17:49:34.148Z,14.61
2022-11-13T17:52:19.900Z,15.04
2022-11-13T17:55:07.907Z,14.04
2022-11-13T17:57:53.557Z,13.68
2022-11-13T18:00:39.707Z,13.77
2022-11-13T18:03:26.749Z,13.76
2022-11-13T18:06:18.233Z,13.96
2022-11-13T18:09:05.244Z,14.56
2022-11-13T18:11:51.929Z,13.76
2022-11-13T18:14:38.756Z,14.51
2022-11-13T18:17:25.079Z,14.68
2022-11-13T18:20:12.127Z,14.98
2022-11-13T18:22:59.182Z,15.01
2022-11-13T18:25:45.649Z,15.08
2022-11-13T18:28:32.089Z,14.29
2022-11-13T18:31:22.519Z,14.45
2022-11-13T18:34:13.009Z,14.08
2022-11-13T18:37:00.003Z,13.54
2022-11-13T18:39:46.462Z,13.96
2022-11-13T18:42:32.919Z,14.10
2022-11-13T18:45:19.302Z,13.66
2022-11-13T18:48:05.824Z,13.61
2022-11-13T18:50:56.310Z,14.17
2022-11-13T18:53:46.540Z,14.54
2022-11-13T18:56:35.903Z,14.74
2022-11-13T18:59:22.466Z,14.51
2022-11-13T19:02:09.701Z,14.75
2022-11-13T19:04:55.951Z,14.24
2022-11-13T19:07:41.995Z,14.31
2022-11-13T19:10:28.554Z,15.30
2022-11-13T19:13:15.760Z,15.78
2022-11-13T19:16:09.270Z,15.07
2022-11-13T19:18:56.989Z,14.56
2022-11-13T19:21:43.308Z,14.76
2022-11-13T19:24:30.604Z,14.87
2022-11-13T19:27:16.881Z,14.91
2022-11-13T19:30:03.409Z,14.45
2022-11-13T19:32:50.998Z,14.05
2022-11-13T19:35:37.401Z,14.64
2022-11-13T19:38:24.141Z,14.53
2022-11-13T19:41:13.778Z,14.81
2022-11-13T19:44:01.683Z,14.92
2022-11-13T19:46:48.388Z,15.32
2022-11-13T19:49:35.295Z,15.14
2022-11-13T19:52:22.519Z,15.44
2022-11-13T19:55:12.803Z,15.06
2022-11-13T19:58:02.192Z,15.68
2022-11-13T20:00:48.935Z,15.39
2022-11-13T20:03:35.080Z,15.53
2022-11-13T20:06:21.468Z,15.84
2022-11-13T20:09:07.318Z,15.04
2022-11-13T20:11:53.232Z,14.23
2022-11-13T20:14:39.416Z,14.00
2022-11-13T20:17:28.154Z,15.20
2022-11-13T20:20:14.722Z,15.11
2022-11-13T20:23:00.808Z,15.22
2022-11-13T20:25:54.307Z,14.45
2022-11-13T20:28:40.328Z,15.21
2022-11-13T20:31:28.506Z,15.36
2022-11-13T20:34:15.191Z,15.51
2022-11-13T20:37:01.769Z,15.85
2022-11-13T20:39:48.416Z,16.18
2022-11-13T20:42:34.199Z,15.83
2022-11-13T20:45:21.927Z,16.17
2022-11-13T20:48:09.031Z,16.22
2022-11-13T20:50:55.116Z,16.30
2022-11-13T20:53:41.314Z,16.50
2022-11-13T20:56:27.308Z,16.68
2022-11-13T20:59:14.890Z,16.55
2022-11-13T21:02:01.240Z,15.65
2022-11-13T21:04:47.525Z,15.45
2022-11-13T21:07:33.510Z,16.11
2022-11-13T21:10:19.375Z,16.24
2022-11-13T21:13:05.240Z,16.42
2022-11-13T21:15:53.012Z,16.45
2022-11-13T21:18:38.502Z,16.66
2022-11-13T21:21:26.686Z,16.54
2022-11-13T21:24:12.605Z,16.30
2022-11-13T21:26:58.437Z,16.02
2022-11-13T21:29:44.386Z,16.24
2022-11-13T21:32:30.763Z,15.55
2022-11-13T21:35:22.348Z,15.83
2022-11-13T21:38:08.679Z,15.18
2022-11-13T21:41:20.372Z,15.79
2022-11-13T21:44:08.082Z,15.80
2022-11-13T21:46:54.139Z,15.63
2022-11-13T21:49:39.556Z,15.46
2022-11-13T21:52:25.321Z,15.36
2022-11-13T21:55:11.249Z,15.09
2022-11-13T21:57:56.931Z,14.55
2022-11-13T22:00:42.761Z,13.23
2022-11-13T22:03:28.655Z,14.43
2022-11-13T22:06:24.270Z,14.13
2022-11-13T22:09:13.347Z,14.32
2022-11-13T22:11:58.893Z,14.84
2022-11-13T22:14:44.519Z,15.32
2022-11-13T22:17:30.191Z,15.36
2022-11-13T22:20:16.162Z,15.35
2022-11-13T22:23:04.669Z,15.30
2022-11-13T22:25:52.418Z,15.36
2022-11-13T22:28:40.653Z,15.33
2022-11-13T22:31:27.208Z,15.21
2022-11-13T22:34:12.974Z,15.23
2022-11-13T22:36:58.730Z,15.00
2022-11-13T22:39:44.697Z,15.06
2022-11-13T22:42:30.436Z,15.14
2022-11-13T22:45:23.783Z,13.71
2022-11-13T22:48:10.147Z,14.47
2022-11-13T22:50:55.968Z,13.61
2022-11-13T22:53:41.934Z,13.95
2022-11-13T22:56:28.578Z,14.03
2022-11-13T22:59:14.418Z,13.58
2022-11-13T23:01:59.965Z,14.16
2022-11-13T23:04:45.858Z,14.24
2022-11-13T23:07:31.818Z,14.01
2022-11-13T23:10:17.605Z,13.72
2022-11-13T23:13:03.061Z,14.16
2022-11-13T23:15:48.693Z,13.94
2022-11-13T23:18:34.547Z,13.77
2022-11-13T23:21:20.193Z,13.74
2022-11-13T23:24:06.145Z,14.52
2022-11-13T23:26:51.611Z,14.53
2022-11-13T23:29:37.288Z,14.48
2022-11-13T23:32:23.574Z,14.26
2022-11-13T23:35:09.522Z,14.14
2022-11-13T23:37:55.120Z,14.31
2022-11-13T23:40:41.122Z,14.07
2022-11-13T23:43:41.692Z,14.42
2022-11-13T23:46:32.740Z,14.44
2022-11-13T23:49:18.309Z,13.82
2022-11-13T23:52:03.959Z,14.28
2022-11-13T23:54:49.731Z,14.60
2022-11-13T23:57:35.500Z,14.96
